<?xml version="1.0" encoding="utf-8"?>
<gpx xmlns:xsi="http://www.w3.org/2001/XMLSchema-instance" xmlns:xsd="http://www.w3.org/2001/XMLSchema" version="1.1" creator="Shapelink.com" xmlns="http://www.topografix.com/GPX/1/1" xmlns:gpxtpx="http://www.garmin.com/xmlschemas/TrackPointExtension/v1">
  <metadata>
    <name>Löpning 2.52 km, 2019-09-30</name>
    <desc></desc>
    <author><name>Bengt Norberg</name></author> 
    <time>2019-09-30T07:34:24Z</time>
  </metadata>
  <trk>
    <name>Löpning 2.52 km, 2019-09-30</name>
    <trkseg>
      <trkpt lat="59.820436859539" lon="16.985049722047">
        <ele>67.6</ele>
        <time>2019-09-30T07:34:24Z</time>
      </trkpt>
      <trkpt lat="59.820331918151" lon="16.984752667511">
        <ele>67.8</ele>
        <time>2019-09-30T07:34:32Z</time>
      </trkpt>
      <trkpt lat="59.820322949518" lon="16.984609337021">
        <ele>68.8</ele>
        <time>2019-09-30T07:34:37Z</time>
      </trkpt>
      <trkpt lat="59.820182301236" lon="16.984645882105">
        <ele>69</ele>
        <time>2019-09-30T07:34:45Z</time>
      </trkpt>
      <trkpt lat="59.820150450016" lon="16.984619227663">
        <ele>69.4</ele>
        <time>2019-09-30T07:34:47Z</time>
      </trkpt>
      <trkpt lat="59.820057830021" lon="16.984406746498">
        <ele>71</ele>
        <time>2019-09-30T07:34:55Z</time>
      </trkpt>
      <trkpt lat="59.820016926349" lon="16.984059903476">
        <ele>73.4</ele>
        <time>2019-09-30T07:35:06Z</time>
      </trkpt>
      <trkpt lat="59.820009466458" lon="16.983661008855">
        <ele>73.4</ele>
        <time>2019-09-30T07:35:14Z</time>
      </trkpt>
      <trkpt lat="59.820025559706" lon="16.983286086468">
        <ele>74.6</ele>
        <time>2019-09-30T07:35:24Z</time>
      </trkpt>
      <trkpt lat="59.8201031761" lon="16.982979476566">
        <ele>76</ele>
        <time>2019-09-30T07:35:37Z</time>
      </trkpt>
      <trkpt lat="59.820278860724" lon="16.982978135462">
        <ele>77.2</ele>
        <time>2019-09-30T07:35:50Z</time>
      </trkpt>
      <trkpt lat="59.820330074133" lon="16.982803456666">
        <ele>74.6</ele>
        <time>2019-09-30T07:35:54Z</time>
      </trkpt>
      <trkpt lat="59.820493605002" lon="16.982608326034">
        <ele>75</ele>
        <time>2019-09-30T07:36:08Z</time>
      </trkpt>
      <trkpt lat="59.820667361789" lon="16.982553089313">
        <ele>75.8</ele>
        <time>2019-09-30T07:36:22Z</time>
      </trkpt>
      <trkpt lat="59.820858552928" lon="16.982617294667">
        <ele>76.6</ele>
        <time>2019-09-30T07:36:36Z</time>
      </trkpt>
      <trkpt lat="59.821035075742" lon="16.9826765547">
        <ele>83</ele>
        <time>2019-09-30T07:36:45Z</time>
      </trkpt>
      <trkpt lat="59.821200450629" lon="16.982546048517">
        <ele>84.6</ele>
        <time>2019-09-30T07:36:52Z</time>
      </trkpt>
      <trkpt lat="59.821375883796" lon="16.982463067707">
        <ele>84.6</ele>
        <time>2019-09-30T07:37:04Z</time>
      </trkpt>
      <trkpt lat="59.82155827394" lon="16.982444627527">
        <ele>84.8</ele>
        <time>2019-09-30T07:37:15Z</time>
      </trkpt>
      <trkpt lat="59.821736892229" lon="16.982413865954">
        <ele>84.8</ele>
        <time>2019-09-30T07:37:25Z</time>
      </trkpt>
      <trkpt lat="59.821915678156" lon="16.982342368347">
        <ele>83.2</ele>
        <time>2019-09-30T07:37:30Z</time>
      </trkpt>
      <trkpt lat="59.822045932882" lon="16.982071884434">
        <ele>83.4</ele>
        <time>2019-09-30T07:37:40Z</time>
      </trkpt>
      <trkpt lat="59.822114245367" lon="16.982011702392">
        <ele>83.4</ele>
        <time>2019-09-30T07:37:44Z</time>
      </trkpt>
      <trkpt lat="59.822250367423" lon="16.98188278877">
        <ele>83.4</ele>
        <time>2019-09-30T07:37:53Z</time>
      </trkpt>
      <trkpt lat="59.822397805044" lon="16.981678605686">
        <ele>84.2</ele>
        <time>2019-09-30T07:38:03Z</time>
      </trkpt>
      <trkpt lat="59.822547673416" lon="16.981459838096">
        <ele>84.2</ele>
        <time>2019-09-30T07:38:15Z</time>
      </trkpt>
      <trkpt lat="59.822715646692" lon="16.981343413505">
        <ele>84.2</ele>
        <time>2019-09-30T07:38:25Z</time>
      </trkpt>
      <trkpt lat="59.822899964673" lon="16.981155910402">
        <ele>81.8</ele>
        <time>2019-09-30T07:38:38Z</time>
      </trkpt>
      <trkpt lat="59.822944137286" lon="16.981064212416">
        <ele>79.2</ele>
        <time>2019-09-30T07:38:43Z</time>
      </trkpt>
      <trkpt lat="59.823020580214" lon="16.980952481689">
        <ele>78.6</ele>
        <time>2019-09-30T07:38:53Z</time>
      </trkpt>
      <trkpt lat="59.823168017835" lon="16.980931275482">
        <ele>84.8</ele>
        <time>2019-09-30T07:39:10Z</time>
      </trkpt>
      <trkpt lat="59.823269271187" lon="16.981024985124">
        <ele>87.4</ele>
        <time>2019-09-30T07:39:14Z</time>
      </trkpt>
      <trkpt lat="59.823437915015" lon="16.980795321064">
        <ele>85.6</ele>
        <time>2019-09-30T07:39:25Z</time>
      </trkpt>
      <trkpt lat="59.82350706569" lon="16.980733714099">
        <ele>85.6</ele>
        <time>2019-09-30T07:39:31Z</time>
      </trkpt>
      <trkpt lat="59.823598596038" lon="16.980647548167">
        <ele>87.2</ele>
        <time>2019-09-30T07:39:35Z</time>
      </trkpt>
      <trkpt lat="59.823675625699" lon="16.980605135753">
        <ele>87.2</ele>
        <time>2019-09-30T07:39:43Z</time>
      </trkpt>
      <trkpt lat="59.823799174905" lon="16.980572111067">
        <ele>87.6</ele>
        <time>2019-09-30T07:39:49Z</time>
      </trkpt>
      <trkpt lat="59.823854663083" lon="16.980544953711">
        <ele>87.8</ele>
        <time>2019-09-30T07:39:51Z</time>
      </trkpt>
      <trkpt lat="59.824023055454" lon="16.980480245443">
        <ele>89.6</ele>
        <time>2019-09-30T07:40:00Z</time>
      </trkpt>
      <trkpt lat="59.82410888611" lon="16.98046540948">
        <ele>91</ele>
        <time>2019-09-30T07:40:05Z</time>
      </trkpt>
      <trkpt lat="59.824106203902" lon="16.980480245443">
        <ele>91.8</ele>
        <time>2019-09-30T07:40:07Z</time>
      </trkpt>
      <trkpt lat="59.824107712644" lon="16.980239852551">
        <ele>92.2</ele>
        <time>2019-09-30T07:40:15Z</time>
      </trkpt>
      <trkpt lat="59.824159680424" lon="16.980085374134">
        <ele>93.8</ele>
        <time>2019-09-30T07:40:22Z</time>
      </trkpt>
      <trkpt lat="59.824104443703" lon="16.979997028908">
        <ele>93.4</ele>
        <time>2019-09-30T07:40:30Z</time>
      </trkpt>
      <trkpt lat="59.824030012431" lon="16.97977222635">
        <ele>93</ele>
        <time>2019-09-30T07:40:40Z</time>
      </trkpt>
      <trkpt lat="59.824045770403" lon="16.979654712112">
        <ele>93.2</ele>
        <time>2019-09-30T07:40:44Z</time>
      </trkpt>
      <trkpt lat="59.824104778979" lon="16.979275934051">
        <ele>93</ele>
        <time>2019-09-30T07:40:52Z</time>
      </trkpt>
      <trkpt lat="59.824130846688" lon="16.979177530545">
        <ele>93</ele>
        <time>2019-09-30T07:40:58Z</time>
      </trkpt>
      <trkpt lat="59.824076951071" lon="16.979067140922">
        <ele>93</ele>
        <time>2019-09-30T07:41:05Z</time>
      </trkpt>
      <trkpt lat="59.824122045693" lon="16.978712921828">
        <ele>88</ele>
        <time>2019-09-30T07:41:20Z</time>
      </trkpt>
      <trkpt lat="59.824178204423" lon="16.978517120644">
        <ele>86.6</ele>
        <time>2019-09-30T07:41:26Z</time>
      </trkpt>
      <trkpt lat="59.824324552397" lon="16.978302292547">
        <ele>87</ele>
        <time>2019-09-30T07:41:36Z</time>
      </trkpt>
      <trkpt lat="59.824489089094" lon="16.978260718323">
        <ele>88</ele>
        <time>2019-09-30T07:41:44Z</time>
      </trkpt>
      <trkpt lat="59.824684052088" lon="16.978191148553">
        <ele>90.2</ele>
        <time>2019-09-30T07:41:53Z</time>
      </trkpt>
      <trkpt lat="59.824864262938" lon="16.978257533201">
        <ele>91</ele>
        <time>2019-09-30T07:42:02Z</time>
      </trkpt>
      <trkpt lat="59.824883541308" lon="16.978267172386">
        <ele>91.2</ele>
        <time>2019-09-30T07:42:03Z</time>
      </trkpt>
      <trkpt lat="59.825039696105" lon="16.978495243885">
        <ele>95</ele>
        <time>2019-09-30T07:42:12Z</time>
      </trkpt>
      <trkpt lat="59.825222756801" lon="16.978539081222">
        <ele>94</ele>
        <time>2019-09-30T07:42:21Z</time>
      </trkpt>
      <trkpt lat="59.825243963008" lon="16.978538243032">
        <ele>93.8</ele>
        <time>2019-09-30T07:42:22Z</time>
      </trkpt>
      <trkpt lat="59.82540137509" lon="16.978642178592">
        <ele>90.4</ele>
        <time>2019-09-30T07:42:36Z</time>
      </trkpt>
      <trkpt lat="59.825419228537" lon="16.978631365941">
        <ele>90.6</ele>
        <time>2019-09-30T07:42:37Z</time>
      </trkpt>
      <trkpt lat="59.825607988925" lon="16.978608315716">
        <ele>89.4</ele>
        <time>2019-09-30T07:42:48Z</time>
      </trkpt>
      <trkpt lat="59.825800688806" lon="16.9785778056">
        <ele>89</ele>
        <time>2019-09-30T07:42:58Z</time>
      </trkpt>
      <trkpt lat="59.826103275396" lon="16.978598425074">
        <ele>90.2</ele>
        <time>2019-09-30T07:43:14Z</time>
      </trkpt>
      <trkpt lat="59.826266806265" lon="16.978752819672">
        <ele>91.4</ele>
        <time>2019-09-30T07:43:23Z</time>
      </trkpt>
      <trkpt lat="59.826402676864" lon="16.979007880889">
        <ele>91.4</ele>
        <time>2019-09-30T07:43:31Z</time>
      </trkpt>
      <trkpt lat="59.826405107615" lon="16.979058591384">
        <ele>90.8</ele>
        <time>2019-09-30T07:43:32Z</time>
      </trkpt>
      <trkpt lat="59.826376944431" lon="16.979282639571">
        <ele>87.8</ele>
        <time>2019-09-30T07:43:36Z</time>
      </trkpt>
      <trkpt lat="59.826388930548" lon="16.979642474538">
        <ele>86.2</ele>
        <time>2019-09-30T07:43:43Z</time>
      </trkpt>
      <trkpt lat="59.826406029624" lon="16.980029131585">
        <ele>84.8</ele>
        <time>2019-09-30T07:43:51Z</time>
      </trkpt>
      <trkpt lat="59.826430420953" lon="16.98041176532">
        <ele>83.4</ele>
        <time>2019-09-30T07:43:59Z</time>
      </trkpt>
      <trkpt lat="59.826441401242" lon="16.9807822453">
        <ele>81.6</ele>
        <time>2019-09-30T07:44:06Z</time>
      </trkpt>
      <trkpt lat="59.826446095106" lon="16.981202094671">
        <ele>77.8</ele>
        <time>2019-09-30T07:44:14Z</time>
      </trkpt>
      <trkpt lat="59.826449280228" lon="16.981562684009">
        <ele>73.8</ele>
        <time>2019-09-30T07:44:21Z</time>
      </trkpt>
      <trkpt lat="59.826483897475" lon="16.981946742667">
        <ele>71</ele>
        <time>2019-09-30T07:44:29Z</time>
      </trkpt>
      <trkpt lat="59.826502253836" lon="16.982323760529">
        <ele>71.8</ele>
        <time>2019-09-30T07:44:36Z</time>
      </trkpt>
      <trkpt lat="59.826476856679" lon="16.982715614354">
        <ele>57.8</ele>
        <time>2019-09-30T07:44:45Z</time>
      </trkpt>
      <trkpt lat="59.826466211666" lon="16.983107049084">
        <ele>43.2</ele>
        <time>2019-09-30T07:44:54Z</time>
      </trkpt>
      <trkpt lat="59.826470737892" lon="16.983482222928">
        <ele>37</ele>
        <time>2019-09-30T07:45:02Z</time>
      </trkpt>
      <trkpt lat="59.826483897475" lon="16.983859911342">
        <ele>32.6</ele>
        <time>2019-09-30T07:45:10Z</time>
      </trkpt>
      <trkpt lat="59.826500493637" lon="16.98424313181">
        <ele>29.6</ele>
        <time>2019-09-30T07:45:18Z</time>
      </trkpt>
      <trkpt lat="59.826519352912" lon="16.98460187713">
        <ele>26</ele>
        <time>2019-09-30T07:45:25Z</time>
      </trkpt>
      <trkpt lat="59.82654215168" lon="16.985002112855">
        <ele>27.2</ele>
        <time>2019-09-30T07:45:33Z</time>
      </trkpt>
      <trkpt lat="59.826585318465" lon="16.985401845666">
        <ele>26.6</ele>
        <time>2019-09-30T07:45:41Z</time>
      </trkpt>
      <trkpt lat="59.826612056726" lon="16.985798560993">
        <ele>24.6</ele>
        <time>2019-09-30T07:45:49Z</time>
      </trkpt>
      <trkpt lat="59.826586408112" lon="16.985881206527">
        <ele>23.4</ele>
        <time>2019-09-30T07:45:51Z</time>
      </trkpt>
      <trkpt lat="59.826495129221" lon="16.985973826522">
        <ele>22.8</ele>
        <time>2019-09-30T07:45:55Z</time>
      </trkpt>
      <trkpt lat="59.826314750733" lon="16.986099974117">
        <ele>23.4</ele>
        <time>2019-09-30T07:46:02Z</time>
      </trkpt>
      <trkpt lat="59.826119955377" lon="16.986223439504">
        <ele>24.6</ele>
        <time>2019-09-30T07:46:10Z</time>
      </trkpt>
      <trkpt lat="59.825951563006" lon="16.986351682574">
        <ele>32.6</ele>
        <time>2019-09-30T07:46:17Z</time>
      </trkpt>
      <trkpt lat="59.82576682593" lon="16.986496354168">
        <ele>39.4</ele>
        <time>2019-09-30T07:46:25Z</time>
      </trkpt>
      <trkpt lat="59.825586279804" lon="16.986648820929">
        <ele>44.4</ele>
        <time>2019-09-30T07:46:33Z</time>
      </trkpt>
      <trkpt lat="59.825411098094" lon="16.986764742606">
        <ele>47.4</ele>
        <time>2019-09-30T07:46:41Z</time>
      </trkpt>
      <trkpt lat="59.825219068765" lon="16.986861553551">
        <ele>53.2</ele>
        <time>2019-09-30T07:46:49Z</time>
      </trkpt>
      <trkpt lat="59.825031900938" lon="16.986956688116">
        <ele>59.6</ele>
        <time>2019-09-30T07:46:57Z</time>
      </trkpt>
      <trkpt lat="59.824852947373" lon="16.987032125216">
        <ele>61</ele>
        <time>2019-09-30T07:47:04Z</time>
      </trkpt>
      <trkpt lat="59.824665276632" lon="16.9871021979">
        <ele>61.4</ele>
        <time>2019-09-30T07:47:11Z</time>
      </trkpt>
      <trkpt lat="59.824485903972" lon="16.987184843434">
        <ele>60.4</ele>
        <time>2019-09-30T07:47:19Z</time>
      </trkpt>
      <trkpt lat="59.824286079476" lon="16.987248462055">
        <ele>60.4</ele>
        <time>2019-09-30T07:47:27Z</time>
      </trkpt>
      <trkpt lat="59.824109472843" lon="16.98736455137">
        <ele>58.8</ele>
        <time>2019-09-30T07:47:34Z</time>
      </trkpt>
      <trkpt lat="59.823920628636" lon="16.987481730332">
        <ele>58.2</ele>
        <time>2019-09-30T07:47:41Z</time>
      </trkpt>
      <trkpt lat="59.823802862941" lon="16.987582732227">
        <ele>57.6</ele>
        <time>2019-09-30T07:47:46Z</time>
      </trkpt>
      <trkpt lat="59.823686270712" lon="16.987700917017">
        <ele>60.6</ele>
        <time>2019-09-30T07:47:51Z</time>
      </trkpt>
      <trkpt lat="59.823505892224" lon="16.987854138149">
        <ele>62.8</ele>
        <time>2019-09-30T07:47:59Z</time>
      </trkpt>
      <trkpt lat="59.823300787131" lon="16.987952206379">
        <ele>61.8</ele>
        <time>2019-09-30T07:48:07Z</time>
      </trkpt>
      <trkpt lat="59.823119486634" lon="16.988055136111">
        <ele>65.4</ele>
        <time>2019-09-30T07:48:15Z</time>
      </trkpt>
      <trkpt lat="59.822940700707" lon="16.988199556248">
        <ele>67.2</ele>
        <time>2019-09-30T07:48:24Z</time>
      </trkpt>
      <trkpt lat="59.822746994998" lon="16.988265018887">
        <ele>61.4</ele>
        <time>2019-09-30T07:48:31Z</time>
      </trkpt>
      <trkpt lat="59.822553540746" lon="16.988364847316">
        <ele>58.2</ele>
        <time>2019-09-30T07:48:39Z</time>
      </trkpt>
      <trkpt lat="59.82236293634" lon="16.988502561933">
        <ele>56.6</ele>
        <time>2019-09-30T07:48:47Z</time>
      </trkpt>
      <trkpt lat="59.822181803481" lon="16.988597612679">
        <ele>58.8</ele>
        <time>2019-09-30T07:48:55Z</time>
      </trkpt>
      <trkpt lat="59.821989019781" lon="16.988695094176">
        <ele>60.2</ele>
        <time>2019-09-30T07:49:03Z</time>
      </trkpt>
      <trkpt lat="59.821667406278" lon="16.988861642529">
        <ele>60</ele>
        <time>2019-09-30T07:49:16Z</time>
      </trkpt>
      <trkpt lat="59.821475712225" lon="16.988966416279">
        <ele>61.8</ele>
        <time>2019-09-30T07:49:24Z</time>
      </trkpt>
      <trkpt lat="59.821296423384" lon="16.989044535587">
        <ele>59.4</ele>
        <time>2019-09-30T07:49:31Z</time>
      </trkpt>
      <trkpt lat="59.821117218362" lon="16.989201109479">
        <ele>58.6</ele>
        <time>2019-09-30T07:49:38Z</time>
      </trkpt>
      <trkpt lat="59.820933738571" lon="16.989293729474">
        <ele>58.4</ele>
        <time>2019-09-30T07:49:45Z</time>
      </trkpt>
      <trkpt lat="59.820738691758" lon="16.98936363452">
        <ele>67</ele>
        <time>2019-09-30T07:49:53Z</time>
      </trkpt>
      <trkpt lat="59.820543142031" lon="16.989448626986">
        <ele>69.4</ele>
        <time>2019-09-30T07:50:01Z</time>
      </trkpt>
      <trkpt lat="59.820367373588" lon="16.989527752122">
        <ele>71.8</ele>
        <time>2019-09-30T07:50:09Z</time>
      </trkpt>
      <trkpt lat="59.820237537957" lon="16.989495397988">
        <ele>72.4</ele>
        <time>2019-09-30T07:50:19Z</time>
      </trkpt>
      <trkpt lat="59.820200573778" lon="16.989301943736">
        <ele>72</ele>
        <time>2019-09-30T07:50:23Z</time>
      </trkpt>
      <trkpt lat="59.820126980696" lon="16.988947473185">
        <ele>71.8</ele>
        <time>2019-09-30T07:50:30Z</time>
      </trkpt>
      <trkpt lat="59.82003863547" lon="16.988628290433">
        <ele>72</ele>
        <time>2019-09-30T07:50:37Z</time>
      </trkpt>
      <trkpt lat="59.819965293845" lon="16.988285805999">
        <ele>72.8</ele>
        <time>2019-09-30T07:50:44Z</time>
      </trkpt>
      <trkpt lat="59.819854652765" lon="16.987987158902">
        <ele>71.8</ele>
        <time>2019-09-30T07:50:48Z</time>
      </trkpt>
      <trkpt lat="59.819771085222" lon="16.987624641727">
        <ele>73</ele>
        <time>2019-09-30T07:50:56Z</time>
      </trkpt>
      <trkpt lat="59.81971257956" lon="16.987310991029">
        <ele>76.4</ele>
        <time>2019-09-30T07:51:03Z</time>
      </trkpt>
      <trkpt lat="59.819650721138" lon="16.986885022871">
        <ele>77.2</ele>
        <time>2019-09-30T07:51:11Z</time>
      </trkpt>
      <trkpt lat="59.819585845232" lon="16.986514039977">
        <ele>81.2</ele>
        <time>2019-09-30T07:51:20Z</time>
      </trkpt>
      <trkpt lat="59.819514850539" lon="16.986113049881">
        <ele>79.4</ele>
        <time>2019-09-30T07:51:28Z</time>
      </trkpt>
      <trkpt lat="59.819453830307" lon="16.985718932943">
        <ele>82.6</ele>
        <time>2019-09-30T07:51:36Z</time>
      </trkpt>
      <trkpt lat="59.819401275794" lon="16.985360187623">
        <ele>80</ele>
        <time>2019-09-30T07:51:44Z</time>
      </trkpt>
      <trkpt lat="59.81940915478" lon="16.985313919535">
        <ele>78.4</ele>
        <time>2019-09-30T07:51:45Z</time>
      </trkpt>
      <trkpt lat="59.819485178613" lon="16.985269998379">
        <ele>75.6</ele>
        <time>2019-09-30T07:51:48Z</time>
      </trkpt>
      <trkpt lat="59.819692882095" lon="16.985208810509">
        <ele>70.2</ele>
        <time>2019-09-30T07:51:56Z</time>
      </trkpt>
      <trkpt lat="59.819872925307" lon="16.985145946259">
        <ele>67.8</ele>
        <time>2019-09-30T07:52:02Z</time>
      </trkpt>
      <trkpt lat="59.820070067595" lon="16.985083668742">
        <ele>62.2</ele>
        <time>2019-09-30T07:52:11Z</time>
      </trkpt>
      <trkpt lat="59.820094039829" lon="16.98508635095">
        <ele>61.6</ele>
        <time>2019-09-30T07:52:12Z</time>
      </trkpt>
      <trkpt lat="59.82008222135" lon="16.98519866841">
        <ele>39.6</ele>
        <time>2019-09-30T07:56:39Z</time>
      </trkpt>
      <trkpt lat="59.820088256318" lon="16.985221048083">
        <ele>39.4</ele>
        <time>2019-09-30T07:56:40Z</time>
      </trkpt>
    </trkseg>
  </trk>
</gpx>